sensor_id;sensor_type;location;lat;lon;timestamp;temperature;humidity
16479;DHT22;8350;52.316;10.530;2023-07-29T00:01:40;18.40;99.90
16479;DHT22;8350;52.316;10.530;2023-07-29T00:04:07;18.40;99.90
16479;DHT22;8350;52.316;10.530;2023-07-29T00:06:35;18.30;99.90
16479;DHT22;8350;52.316;10.530;2023-07-29T00:09:03;18.20;99.90
16479;DHT22;8350;52.316;10.530;2023-07-29T00:11:30;18.20;99.90
16479;DHT22;8350;52.316;10.530;2023-07-29T00:13:59;18.20;99.90
16479;DHT22;8350;52.316;10.530;2023-07-29T00:16:26;18.20;99.90
16479;DHT22;8350;52.316;10.530;2023-07-29T00:18:55;18.10;99.90
16479;DHT22;8350;52.316;10.530;2023-07-29T00:21:22;18.20;99.90
16479;DHT22;8350;52.316;10.530;2023-07-29T00:23:49;18.20;99.90
16479;DHT22;8350;52.316;10.530;2023-07-29T00:26:16;18.20;99.90
16479;DHT22;8350;52.316;10.530;2023-07-29T00:28:43;18.20;99.90
16479;DHT22;8350;52.316;10.530;2023-07-29T00:31:10;18.30;99.90
16479;DHT22;8350;52.316;10.530;2023-07-29T00:33:37;18.30;99.90
16479;DHT22;8350;52.316;10.530;2023-07-29T00:36:05;18.30;99.90
16479;DHT22;8350;52.316;10.530;2023-07-29T00:38:32;18.30;99.90
16479;DHT22;8350;52.316;10.530;2023-07-29T00:41:00;18.20;99.90
16479;DHT22;8350;52.316;10.530;2023-07-29T00:43:29;18.20;99.90
16479;DHT22;8350;52.316;10.530;2023-07-29T00:45:56;18.10;99.90
16479;DHT22;8350;52.316;10.530;2023-07-29T00:48:23;18.10;99.90
16479;DHT22;8350;52.316;10.530;2023-07-29T00:50:51;18.10;99.90
16479;DHT22;8350;52.316;10.530;2023-07-29T00:53:21;18.00;99.90
16479;DHT22;8350;52.316;10.530;2023-07-29T00:55:50;18.00;99.90
16479;DHT22;8350;52.316;10.530;2023-07-29T00:58:18;18.00;99.90
16479;DHT22;8350;52.316;10.530;2023-07-29T01:00:46;18.00;99.90
16479;DHT22;8350;52.316;10.530;2023-07-29T01:03:13;18.10;99.90
16479;DHT22;8350;52.316;10.530;2023-07-29T01:05:50;18.00;99.90
16479;DHT22;8350;52.316;10.530;2023-07-29T01:08:33;18.00;99.90
16479;DHT22;8350;52.316;10.530;2023-07-29T01:11:13;18.00;99.90
16479;DHT22;8350;52.316;10.530;2023-07-29T01:13:50;18.00;99.90
16479;DHT22;8350;52.316;10.530;2023-07-29T01:16:23;18.00;99.90
16479;DHT22;8350;52.316;10.530;2023-07-29T01:18:54;17.90;99.90
16479;DHT22;8350;52.316;10.530;2023-07-29T01:21:22;17.90;99.90
16479;DHT22;8350;52.316;10.530;2023-07-29T01:23:58;17.90;99.90
16479;DHT22;8350;52.316;10.530;2023-07-29T01:26:25;17.90;99.90
16479;DHT22;8350;52.316;10.530;2023-07-29T01:28:55;17.90;99.90
16479;DHT22;8350;52.316;10.530;2023-07-29T01:31:28;17.90;99.90
16479;DHT22;8350;52.316;10.530;2023-07-29T01:34:01;17.90;99.90
16479;DHT22;8350;52.316;10.530;2023-07-29T01:36:35;17.80;99.90
16479;DHT22;8350;52.316;10.530;2023-07-29T01:39:07;17.80;99.90
16479;DHT22;8350;52.316;10.530;2023-07-29T01:41:37;17.80;99.90
16479;DHT22;8350;52.316;10.530;2023-07-29T01:44:04;17.80;99.90
16479;DHT22;8350;52.316;10.530;2023-07-29T01:46:33;17.80;99.90
16479;DHT22;8350;52.316;10.530;2023-07-29T01:49:00;17.80;99.90
16479;DHT22;8350;52.316;10.530;2023-07-29T01:51:27;17.80;99.90
16479;DHT22;8350;52.316;10.530;2023-07-29T01:53:54;17.80;99.90
16479;DHT22;8350;52.316;10.530;2023-07-29T01:56:23;17.80;99.90
16479;DHT22;8350;52.316;10.530;2023-07-29T01:58:49;17.70;99.90
16479;DHT22;8350;52.316;10.530;2023-07-29T02:01:16;17.70;99.90
16479;DHT22;8350;52.316;10.530;2023-07-29T02:03:43;17.70;99.90
16479;DHT22;8350;52.316;10.530;2023-07-29T02:06:10;17.60;99.90
16479;DHT22;8350;52.316;10.530;2023-07-29T02:08:38;17.60;99.90
16479;DHT22;8350;52.316;10.530;2023-07-29T02:11:06;17.60;99.90
16479;DHT22;8350;52.316;10.530;2023-07-29T02:13:35;17.60;99.90
16479;DHT22;8350;52.316;10.530;2023-07-29T02:16:02;17.50;99.90
16479;DHT22;8350;52.316;10.530;2023-07-29T02:18:31;17.50;99.90
16479;DHT22;8350;52.316;10.530;2023-07-29T02:20:58;17.50;99.90
16479;DHT22;8350;52.316;10.530;2023-07-29T02:23:25;17.50;99.90
16479;DHT22;8350;52.316;10.530;2023-07-29T02:25:52;17.40;99.90
16479;DHT22;8350;52.316;10.530;2023-07-29T02:28:19;17.40;99.90
16479;DHT22;8350;52.316;10.530;2023-07-29T02:31:14;17.40;99.90
16479;DHT22;8350;52.316;10.530;2023-07-29T02:33:41;17.40;99.90
16479;DHT22;8350;52.316;10.530;2023-07-29T02:36:08;17.30;99.90
16479;DHT22;8350;52.316;10.530;2023-07-29T02:38:35;17.40;99.90
16479;DHT22;8350;52.316;10.530;2023-07-29T02:41:02;17.30;99.90
16479;DHT22;8350;52.316;10.530;2023-07-29T02:43:28;17.30;99.90
16479;DHT22;8350;52.316;10.530;2023-07-29T02:45:57;17.30;99.90
16479;DHT22;8350;52.316;10.530;2023-07-29T02:48:25;17.30;99.90
16479;DHT22;8350;52.316;10.530;2023-07-29T02:50:52;17.30;99.90
16479;DHT22;8350;52.316;10.530;2023-07-29T02:53:19;17.30;99.90
16479;DHT22;8350;52.316;10.530;2023-07-29T02:55:46;17.30;99.90
16479;DHT22;8350;52.316;10.530;2023-07-29T02:58:13;17.30;99.90
16479;DHT22;8350;52.316;10.530;2023-07-29T03:00:40;17.30;99.90
16479;DHT22;8350;52.316;10.530;2023-07-29T03:03:09;17.30;99.90
16479;DHT22;8350;52.316;10.530;2023-07-29T03:05:36;17.30;99.90
16479;DHT22;8350;52.316;10.530;2023-07-29T03:08:04;17.40;99.90
16479;DHT22;8350;52.316;10.530;2023-07-29T03:10:30;17.40;99.90
16479;DHT22;8350;52.316;10.530;2023-07-29T03:12:57;17.40;99.90
16479;DHT22;8350;52.316;10.530;2023-07-29T03:15:25;17.50;99.90
16479;DHT22;8350;52.316;10.530;2023-07-29T03:17:52;17.50;99.90
16479;DHT22;8350;52.316;10.530;2023-07-29T03:20:23;17.60;99.90
16479;DHT22;8350;52.316;10.530;2023-07-29T03:22:51;17.60;99.90
16479;DHT22;8350;52.316;10.530;2023-07-29T03:25:18;17.60;99.90
16479;DHT22;8350;52.316;10.530;2023-07-29T03:27:45;17.60;99.90
16479;DHT22;8350;52.316;10.530;2023-07-29T03:30:15;17.60;99.90
16479;DHT22;8350;52.316;10.530;2023-07-29T03:32:43;17.60;99.90
16479;DHT22;8350;52.316;10.530;2023-07-29T03:35:11;17.60;99.90
16479;DHT22;8350;52.316;10.530;2023-07-29T03:37:41;17.60;99.90
16479;DHT22;8350;52.316;10.530;2023-07-29T03:40:09;17.60;99.90
16479;DHT22;8350;52.316;10.530;2023-07-29T03:42:36;17.70;99.90
16479;DHT22;8350;52.316;10.530;2023-07-29T03:45:04;17.70;99.90
16479;DHT22;8350;52.316;10.530;2023-07-29T03:47:31;17.80;99.90
16479;DHT22;8350;52.316;10.530;2023-07-29T03:49:58;17.80;99.90
16479;DHT22;8350;52.316;10.530;2023-07-29T03:52:25;17.80;99.90
16479;DHT22;8350;52.316;10.530;2023-07-29T03:54:53;17.80;99.90
16479;DHT22;8350;52.316;10.530;2023-07-29T03:57:20;17.80;99.90
16479;DHT22;8350;52.316;10.530;2023-07-29T03:59:47;17.80;99.90
16479;DHT22;8350;52.316;10.530;2023-07-29T04:02:14;17.80;99.90
16479;DHT22;8350;52.316;10.530;2023-07-29T04:04:41;17.90;99.90
16479;DHT22;8350;52.316;10.530;2023-07-29T04:07:09;18.00;99.90
16479;DHT22;8350;52.316;10.530;2023-07-29T04:09:36;18.00;99.90
16479;DHT22;8350;52.316;10.530;2023-07-29T04:12:19;18.00;99.90
16479;DHT22;8350;52.316;10.530;2023-07-29T04:14:47;18.10;99.90
16479;DHT22;8350;52.316;10.530;2023-07-29T04:17:14;18.10;99.90
16479;DHT22;8350;52.316;10.530;2023-07-29T04:19:41;18.10;99.90
16479;DHT22;8350;52.316;10.530;2023-07-29T04:22:09;18.20;99.90
16479;DHT22;8350;52.316;10.530;2023-07-29T04:24:37;18.20;99.90
16479;DHT22;8350;52.316;10.530;2023-07-29T04:27:04;18.20;99.90
16479;DHT22;8350;52.316;10.530;2023-07-29T04:29:36;18.20;99.90
16479;DHT22;8350;52.316;10.530;2023-07-29T04:32:03;18.30;99.90
16479;DHT22;8350;52.316;10.530;2023-07-29T04:34:30;18.30;99.90
16479;DHT22;8350;52.316;10.530;2023-07-29T04:36:57;18.30;99.90
16479;DHT22;8350;52.316;10.530;2023-07-29T04:39:24;18.40;99.90
16479;DHT22;8350;52.316;10.530;2023-07-29T04:41:52;18.40;99.90
16479;DHT22;8350;52.316;10.530;2023-07-29T04:44:18;18.50;99.90
16479;DHT22;8350;52.316;10.530;2023-07-29T04:46:50;18.50;99.90
16479;DHT22;8350;52.316;10.530;2023-07-29T04:49:16;18.60;99.90
16479;DHT22;8350;52.316;10.530;2023-07-29T04:51:43;18.70;99.90
16479;DHT22;8350;52.316;10.530;2023-07-29T04:54:10;18.90;99.90
16479;DHT22;8350;52.316;10.530;2023-07-29T04:56:40;19.00;99.90
16479;DHT22;8350;52.316;10.530;2023-07-29T04:59:07;19.10;99.90
16479;DHT22;8350;52.316;10.530;2023-07-29T05:01:34;19.20;99.90
16479;DHT22;8350;52.316;10.530;2023-07-29T05:04:03;19.30;99.90
16479;DHT22;8350;52.316;10.530;2023-07-29T05:06:30;19.40;99.90
16479;DHT22;8350;52.316;10.530;2023-07-29T05:08:58;19.40;99.90
16479;DHT22;8350;52.316;10.530;2023-07-29T05:11:25;19.50;99.90
16479;DHT22;8350;52.316;10.530;2023-07-29T05:13:52;19.50;99.90
16479;DHT22;8350;52.316;10.530;2023-07-29T05:16:19;19.60;99.90
16479;DHT22;8350;52.316;10.530;2023-07-29T05:18:49;19.70;99.90
16479;DHT22;8350;52.316;10.530;2023-07-29T05:21:17;19.90;99.90
16479;DHT22;8350;52.316;10.530;2023-07-29T05:23:44;20.20;99.90
16479;DHT22;8350;52.316;10.530;2023-07-29T05:26:12;20.30;99.90
16479;DHT22;8350;52.316;10.530;2023-07-29T05:28:39;20.40;99.90
16479;DHT22;8350;52.316;10.530;2023-07-29T05:31:06;20.40;99.90
16479;DHT22;8350;52.316;10.530;2023-07-29T05:33:33;20.40;99.90
16479;DHT22;8350;52.316;10.530;2023-07-29T05:36:02;20.40;99.90
16479;DHT22;8350;52.316;10.530;2023-07-29T05:38:32;20.30;99.90
16479;DHT22;8350;52.316;10.530;2023-07-29T05:40:58;20.20;99.90
16479;DHT22;8350;52.316;10.530;2023-07-29T05:43:27;20.10;99.90
16479;DHT22;8350;52.316;10.530;2023-07-29T05:45:54;20.20;99.90
16479;DHT22;8350;52.316;10.530;2023-07-29T05:48:22;20.20;99.90
16479;DHT22;8350;52.316;10.530;2023-07-29T05:50:49;20.20;99.90
16479;DHT22;8350;52.316;10.530;2023-07-29T05:53:16;20.30;99.90
16479;DHT22;8350;52.316;10.530;2023-07-29T05:55:45;20.40;99.90
16479;DHT22;8350;52.316;10.530;2023-07-29T05:58:13;20.40;99.90
16479;DHT22;8350;52.316;10.530;2023-07-29T06:00:54;20.40;99.90
16479;DHT22;8350;52.316;10.530;2023-07-29T06:06:11;20.30;99.90
16479;DHT22;8350;52.316;10.530;2023-07-29T06:08:39;20.20;99.90
16479;DHT22;8350;52.316;10.530;2023-07-29T06:11:07;20.20;99.90
16479;DHT22;8350;52.316;10.530;2023-07-29T06:13:34;20.00;99.90
16479;DHT22;8350;52.316;10.530;2023-07-29T06:16:02;19.90;99.90
16479;DHT22;8350;52.316;10.530;2023-07-29T06:18:31;19.80;99.90
16479;DHT22;8350;52.316;10.530;2023-07-29T06:20:58;19.70;99.90
16479;DHT22;8350;52.316;10.530;2023-07-29T06:23:25;19.60;99.90
16479;DHT22;8350;52.316;10.530;2023-07-29T06:25:52;19.40;99.90
16479;DHT22;8350;52.316;10.530;2023-07-29T06:28:20;19.40;99.90
16479;DHT22;8350;52.316;10.530;2023-07-29T06:30:47;19.20;99.90
16479;DHT22;8350;52.316;10.530;2023-07-29T06:33:14;19.20;99.90
16479;DHT22;8350;52.316;10.530;2023-07-29T06:35:44;19.10;99.90
16479;DHT22;8350;52.316;10.530;2023-07-29T06:38:11;19.00;99.90
16479;DHT22;8350;52.316;10.530;2023-07-29T06:40:38;18.90;99.90
16479;DHT22;8350;52.316;10.530;2023-07-29T06:43:05;18.80;99.90
16479;DHT22;8350;52.316;10.530;2023-07-29T06:45:33;18.70;99.90
16479;DHT22;8350;52.316;10.530;2023-07-29T06:48:00;18.60;99.90
16479;DHT22;8350;52.316;10.530;2023-07-29T06:50:27;18.50;99.90
16479;DHT22;8350;52.316;10.530;2023-07-29T06:52:54;18.50;99.90
16479;DHT22;8350;52.316;10.530;2023-07-29T06:55:21;18.50;99.90
16479;DHT22;8350;52.316;10.530;2023-07-29T06:57:48;18.50;99.90
16479;DHT22;8350;52.316;10.530;2023-07-29T07:00:15;18.70;99.90
16479;DHT22;8350;52.316;10.530;2023-07-29T07:02:43;18.70;99.90
16479;DHT22;8350;52.316;10.530;2023-07-29T07:05:10;18.70;99.90
16479;DHT22;8350;52.316;10.530;2023-07-29T07:07:37;18.70;99.90
16479;DHT22;8350;52.316;10.530;2023-07-29T07:10:05;18.70;99.90
16479;DHT22;8350;52.316;10.530;2023-07-29T07:12:32;18.60;99.90
16479;DHT22;8350;52.316;10.530;2023-07-29T07:15:03;18.80;99.90
16479;DHT22;8350;52.316;10.530;2023-07-29T07:17:31;18.70;99.90
16479;DHT22;8350;52.316;10.530;2023-07-29T07:20:00;18.70;99.90
16479;DHT22;8350;52.316;10.530;2023-07-29T07:22:27;18.50;99.90
16479;DHT22;8350;52.316;10.530;2023-07-29T07:24:54;18.60;99.90
16479;DHT22;8350;52.316;10.530;2023-07-29T07:27:21;18.70;99.90
16479;DHT22;8350;52.316;10.530;2023-07-29T07:29:48;18.80;99.90
16479;DHT22;8350;52.316;10.530;2023-07-29T07:32:17;18.70;99.90
16479;DHT22;8350;52.316;10.530;2023-07-29T07:34:46;18.70;99.90
16479;DHT22;8350;52.316;10.530;2023-07-29T07:37:15;18.70;99.90
16479;DHT22;8350;52.316;10.530;2023-07-29T07:39:42;18.80;99.90
16479;DHT22;8350;52.316;10.530;2023-07-29T07:42:11;18.90;99.90
16479;DHT22;8350;52.316;10.530;2023-07-29T07:44:38;18.90;99.90
16479;DHT22;8350;52.316;10.530;2023-07-29T07:47:05;19.00;99.90
16479;DHT22;8350;52.316;10.530;2023-07-29T07:49:32;19.10;99.90
16479;DHT22;8350;52.316;10.530;2023-07-29T07:51:59;19.10;99.90
16479;DHT22;8350;52.316;10.530;2023-07-29T07:54:28;19.20;99.90
16479;DHT22;8350;52.316;10.530;2023-07-29T07:56:57;19.30;99.90
16479;DHT22;8350;52.316;10.530;2023-07-29T07:59:25;19.40;99.90
16479;DHT22;8350;52.316;10.530;2023-07-29T08:02:09;19.50;99.90
16479;DHT22;8350;52.316;10.530;2023-07-29T08:04:38;19.70;99.90
16479;DHT22;8350;52.316;10.530;2023-07-29T08:07:05;19.80;99.90
16479;DHT22;8350;52.316;10.530;2023-07-29T08:09:34;19.90;99.90
16479;DHT22;8350;52.316;10.530;2023-07-29T08:12:05;20.00;99.90
16479;DHT22;8350;52.316;10.530;2023-07-29T08:14:32;20.10;99.90
16479;DHT22;8350;52.316;10.530;2023-07-29T08:16:59;20.20;99.90
16479;DHT22;8350;52.316;10.530;2023-07-29T08:19:27;20.40;99.90
16479;DHT22;8350;52.316;10.530;2023-07-29T08:22:03;20.50;99.90
16479;DHT22;8350;52.316;10.530;2023-07-29T08:24:45;20.70;99.90
16479;DHT22;8350;52.316;10.530;2023-07-29T08:27:13;20.90;99.90
16479;DHT22;8350;52.316;10.530;2023-07-29T08:29:43;21.00;99.90
16479;DHT22;8350;52.316;10.530;2023-07-29T08:32:10;21.00;99.90
16479;DHT22;8350;52.316;10.530;2023-07-29T08:34:37;21.10;99.90
16479;DHT22;8350;52.316;10.530;2023-07-29T08:37:05;21.20;99.90
16479;DHT22;8350;52.316;10.530;2023-07-29T08:39:32;21.20;99.90
16479;DHT22;8350;52.316;10.530;2023-07-29T08:42:07;21.20;99.90
16479;DHT22;8350;52.316;10.530;2023-07-29T08:44:45;21.40;99.90
16479;DHT22;8350;52.316;10.530;2023-07-29T08:47:16;21.50;99.90
16479;DHT22;8350;52.316;10.530;2023-07-29T08:49:47;21.70;99.90
16479;DHT22;8350;52.316;10.530;2023-07-29T08:52:14;21.90;99.90
16479;DHT22;8350;52.316;10.530;2023-07-29T08:54:42;21.90;99.90
16479;DHT22;8350;52.316;10.530;2023-07-29T08:57:11;21.80;99.90
16479;DHT22;8350;52.316;10.530;2023-07-29T08:59:38;22.00;99.90
16479;DHT22;8350;52.316;10.530;2023-07-29T09:02:06;22.00;99.90
16479;DHT22;8350;52.316;10.530;2023-07-29T09:04:33;21.90;99.90
16479;DHT22;8350;52.316;10.530;2023-07-29T09:07:00;21.90;99.90
16479;DHT22;8350;52.316;10.530;2023-07-29T09:09:28;21.80;99.90
16479;DHT22;8350;52.316;10.530;2023-07-29T09:11:55;21.80;99.90
16479;DHT22;8350;52.316;10.530;2023-07-29T09:14:26;21.80;99.90
16479;DHT22;8350;52.316;10.530;2023-07-29T09:16:54;21.70;99.90
16479;DHT22;8350;52.316;10.530;2023-07-29T09:19:25;21.80;99.90
16479;DHT22;8350;52.316;10.530;2023-07-29T09:21:52;21.80;99.90
16479;DHT22;8350;52.316;10.530;2023-07-29T09:24:21;21.70;99.90
16479;DHT22;8350;52.316;10.530;2023-07-29T09:26:51;21.70;99.90
16479;DHT22;8350;52.316;10.530;2023-07-29T09:29:24;21.70;99.90
16479;DHT22;8350;52.316;10.530;2023-07-29T09:31:54;21.60;99.90
16479;DHT22;8350;52.316;10.530;2023-07-29T09:34:23;21.60;99.90
16479;DHT22;8350;52.316;10.530;2023-07-29T09:36:50;21.70;99.90
16479;DHT22;8350;52.316;10.530;2023-07-29T09:39:18;21.70;99.90
16479;DHT22;8350;52.316;10.530;2023-07-29T09:41:47;21.70;99.90
16479;DHT22;8350;52.316;10.530;2023-07-29T09:44:16;21.80;99.90
16479;DHT22;8350;52.316;10.530;2023-07-29T09:46:46;22.20;99.90
16479;DHT22;8350;52.316;10.530;2023-07-29T09:49:13;22.30;99.90
16479;DHT22;8350;52.316;10.530;2023-07-29T09:51:40;22.30;99.90
16479;DHT22;8350;52.316;10.530;2023-07-29T09:54:07;22.30;99.90
16479;DHT22;8350;52.316;10.530;2023-07-29T09:56:39;22.30;99.90
16479;DHT22;8350;52.316;10.530;2023-07-29T09:59:07;22.30;99.90
16479;DHT22;8350;52.316;10.530;2023-07-29T10:01:35;22.20;99.90
16479;DHT22;8350;52.316;10.530;2023-07-29T10:04:04;22.20;99.90
16479;DHT22;8350;52.316;10.530;2023-07-29T10:06:33;22.10;99.90
16479;DHT22;8350;52.316;10.530;2023-07-29T10:09:00;22.10;99.90
16479;DHT22;8350;52.316;10.530;2023-07-29T10:11:28;22.20;99.90
16479;DHT22;8350;52.316;10.530;2023-07-29T10:13:57;22.30;99.90
16479;DHT22;8350;52.316;10.530;2023-07-29T10:16:24;22.30;99.90
16479;DHT22;8350;52.316;10.530;2023-07-29T10:18:55;22.40;99.90
16479;DHT22;8350;52.316;10.530;2023-07-29T10:21:25;22.70;99.90
16479;DHT22;8350;52.316;10.530;2023-07-29T10:23:53;22.90;99.90
16479;DHT22;8350;52.316;10.530;2023-07-29T10:26:23;23.40;99.90
16479;DHT22;8350;52.316;10.530;2023-07-29T10:28:52;23.90;99.90
16479;DHT22;8350;52.316;10.530;2023-07-29T10:31:22;24.20;99.90
16479;DHT22;8350;52.316;10.530;2023-07-29T10:33:52;24.40;99.90
16479;DHT22;8350;52.316;10.530;2023-07-29T10:36:20;24.50;99.90
16479;DHT22;8350;52.316;10.530;2023-07-29T10:38:49;24.50;99.90
16479;DHT22;8350;52.316;10.530;2023-07-29T10:41:16;24.60;99.90
16479;DHT22;8350;52.316;10.530;2023-07-29T10:43:45;24.60;3.40
16479;DHT22;8350;52.316;10.530;2023-07-29T10:46:16;24.60;1.80
16479;DHT22;8350;52.316;10.530;2023-07-29T10:48:51;24.40;95.50
16479;DHT22;8350;52.316;10.530;2023-07-29T10:51:26;24.30;92.80
16479;DHT22;8350;52.316;10.530;2023-07-29T10:53:58;24.20;99.90
16479;DHT22;8350;52.316;10.530;2023-07-29T10:56:27;24.10;99.90
16479;DHT22;8350;52.316;10.530;2023-07-29T10:58:56;24.10;99.90
16479;DHT22;8350;52.316;10.530;2023-07-29T11:01:27;24.10;99.90
16479;DHT22;8350;52.316;10.530;2023-07-29T11:07:22;24.20;53.40
16479;DHT22;8350;52.316;10.530;2023-07-29T11:09:58;24.50;69.90
16479;DHT22;8350;52.316;10.530;2023-07-29T11:12:39;25.00;64.60
16479;DHT22;8350;52.316;10.530;2023-07-29T11:15:21;24.90;99.90
16479;DHT22;8350;52.316;10.530;2023-07-29T11:17:50;25.10;44.20
16479;DHT22;8350;52.316;10.530;2023-07-29T11:20:19;25.10;1.00
16479;DHT22;8350;52.316;10.530;2023-07-29T11:22:48;25.00;1.00
16479;DHT22;8350;52.316;10.530;2023-07-29T11:25:17;25.10;1.00
16479;DHT22;8350;52.316;10.530;2023-07-29T11:27:45;25.20;1.00
16479;DHT22;8350;52.316;10.530;2023-07-29T11:30:13;25.30;1.00
16479;DHT22;8350;52.316;10.530;2023-07-29T11:32:42;25.10;1.00
16479;DHT22;8350;52.316;10.530;2023-07-29T11:35:10;24.70;1.00
16479;DHT22;8350;52.316;10.530;2023-07-29T11:37:38;24.20;1.00
16479;DHT22;8350;52.316;10.530;2023-07-29T11:40:09;23.90;1.00
16479;DHT22;8350;52.316;10.530;2023-07-29T11:42:38;23.70;1.00
16479;DHT22;8350;52.316;10.530;2023-07-29T11:45:06;23.70;99.90
16479;DHT22;8350;52.316;10.530;2023-07-29T11:47:34;24.20;1.00
16479;DHT22;8350;52.316;10.530;2023-07-29T11:50:03;24.80;1.00
16479;DHT22;8350;52.316;10.530;2023-07-29T11:52:31;25.20;1.00
16479;DHT22;8350;52.316;10.530;2023-07-29T11:55:00;25.50;1.00
16479;DHT22;8350;52.316;10.530;2023-07-29T11:57:28;25.60;1.00
16479;DHT22;8350;52.316;10.530;2023-07-29T11:59:57;25.60;1.00
16479;DHT22;8350;52.316;10.530;2023-07-29T12:02:24;25.70;1.00
16479;DHT22;8350;52.316;10.530;2023-07-29T12:04:52;25.90;1.00
16479;DHT22;8350;52.316;10.530;2023-07-29T12:07:20;26.00;1.00
16479;DHT22;8350;52.316;10.530;2023-07-29T12:09:47;26.30;1.00
16479;DHT22;8350;52.316;10.530;2023-07-29T12:12:16;26.60;99.90
16479;DHT22;8350;52.316;10.530;2023-07-29T12:14:44;26.40;99.90
16479;DHT22;8350;52.316;10.530;2023-07-29T12:17:13;26.30;99.90
16479;DHT22;8350;52.316;10.530;2023-07-29T12:19:41;26.00;99.90
16479;DHT22;8350;52.316;10.530;2023-07-29T12:22:10;25.70;99.90
16479;DHT22;8350;52.316;10.530;2023-07-29T12:24:38;25.30;99.90
16479;DHT22;8350;52.316;10.530;2023-07-29T12:27:09;25.20;99.90
16479;DHT22;8350;52.316;10.530;2023-07-29T12:29:40;25.20;99.90
16479;DHT22;8350;52.316;10.530;2023-07-29T12:32:09;25.20;99.90
16479;DHT22;8350;52.316;10.530;2023-07-29T12:34:38;25.40;93.30
16479;DHT22;8350;52.316;10.530;2023-07-29T12:37:06;25.70;99.90
16479;DHT22;8350;52.316;10.530;2023-07-29T12:39:34;26.00;99.90
16479;DHT22;8350;52.316;10.530;2023-07-29T12:42:02;26.00;1.00
16479;DHT22;8350;52.316;10.530;2023-07-29T12:44:32;26.00;1.00
16479;DHT22;8350;52.316;10.530;2023-07-29T12:47:00;26.00;19.40
16479;DHT22;8350;52.316;10.530;2023-07-29T12:49:27;25.80;99.90
16479;DHT22;8350;52.316;10.530;2023-07-29T12:51:57;25.40;1.00
16479;DHT22;8350;52.316;10.530;2023-07-29T12:54:24;25.20;27.80
16479;DHT22;8350;52.316;10.530;2023-07-29T12:56:51;25.10;1.00
16479;DHT22;8350;52.316;10.530;2023-07-29T12:59:18;25.30;99.90
16479;DHT22;8350;52.316;10.530;2023-07-29T13:01:46;25.40;1.00
16479;DHT22;8350;52.316;10.530;2023-07-29T13:04:13;25.60;99.90
16479;DHT22;8350;52.316;10.530;2023-07-29T13:06:40;26.00;74.80
16479;DHT22;8350;52.316;10.530;2023-07-29T13:09:09;26.00;99.90
16479;DHT22;8350;52.316;10.530;2023-07-29T13:11:36;26.00;1.00
16479;DHT22;8350;52.316;10.530;2023-07-29T13:14:03;25.80;85.90
16479;DHT22;8350;52.316;10.530;2023-07-29T13:16:29;25.60;1.00
16479;DHT22;8350;52.316;10.530;2023-07-29T13:18:57;25.30;1.00
16479;DHT22;8350;52.316;10.530;2023-07-29T13:21:27;25.60;99.90
16479;DHT22;8350;52.316;10.530;2023-07-29T13:23:54;25.80;1.00
16479;DHT22;8350;52.316;10.530;2023-07-29T13:26:22;26.10;1.00
16479;DHT22;8350;52.316;10.530;2023-07-29T13:28:49;26.50;99.90
16479;DHT22;8350;52.316;10.530;2023-07-29T13:31:16;26.20;1.00
16479;DHT22;8350;52.316;10.530;2023-07-29T13:33:43;25.80;1.00
16479;DHT22;8350;52.316;10.530;2023-07-29T13:36:10;25.70;1.00
16479;DHT22;8350;52.316;10.530;2023-07-29T13:38:37;25.70;1.00
16479;DHT22;8350;52.316;10.530;2023-07-29T13:41:04;25.80;1.00
16479;DHT22;8350;52.316;10.530;2023-07-29T13:43:33;26.00;1.00
16479;DHT22;8350;52.316;10.530;2023-07-29T13:46:00;26.10;1.00
16479;DHT22;8350;52.316;10.530;2023-07-29T13:48:26;26.00;99.90
16479;DHT22;8350;52.316;10.530;2023-07-29T13:50:53;26.00;99.90
16479;DHT22;8350;52.316;10.530;2023-07-29T13:53:20;25.90;1.00
16479;DHT22;8350;52.316;10.530;2023-07-29T13:55:47;26.10;1.00
16479;DHT22;8350;52.316;10.530;2023-07-29T13:58:14;25.90;1.00
16479;DHT22;8350;52.316;10.530;2023-07-29T14:00:42;25.60;1.00
16479;DHT22;8350;52.316;10.530;2023-07-29T14:03:09;25.40;97.60
16479;DHT22;8350;52.316;10.530;2023-07-29T14:05:36;25.10;1.00
16479;DHT22;8350;52.316;10.530;2023-07-29T14:08:06;25.00;1.00
16479;DHT22;8350;52.316;10.530;2023-07-29T14:10:36;25.20;1.00
16479;DHT22;8350;52.316;10.530;2023-07-29T14:13:03;25.30;99.90
16479;DHT22;8350;52.316;10.530;2023-07-29T14:15:30;25.30;99.90
16479;DHT22;8350;52.316;10.530;2023-07-29T14:17:59;25.40;1.00
16479;DHT22;8350;52.316;10.530;2023-07-29T14:20:28;25.40;1.00
16479;DHT22;8350;52.316;10.530;2023-07-29T14:22:55;25.50;99.90
16479;DHT22;8350;52.316;10.530;2023-07-29T14:25:22;25.60;1.00
16479;DHT22;8350;52.316;10.530;2023-07-29T14:27:49;25.70;1.00
16479;DHT22;8350;52.316;10.530;2023-07-29T14:30:16;25.60;1.00
16479;DHT22;8350;52.316;10.530;2023-07-29T14:32:43;25.50;1.00
16479;DHT22;8350;52.316;10.530;2023-07-29T14:35:12;25.70;27.70
16479;DHT22;8350;52.316;10.530;2023-07-29T14:37:39;25.80;1.00
16479;DHT22;8350;52.316;10.530;2023-07-29T14:40:07;25.70;1.00
16479;DHT22;8350;52.316;10.530;2023-07-29T14:42:34;25.60;3.40
16479;DHT22;8350;52.316;10.530;2023-07-29T14:45:01;25.70;1.00
16479;DHT22;8350;52.316;10.530;2023-07-29T14:47:27;25.90;1.00
16479;DHT22;8350;52.316;10.530;2023-07-29T14:50:00;26.00;1.00
16479;DHT22;8350;52.316;10.530;2023-07-29T14:52:28;26.20;99.90
16479;DHT22;8350;52.316;10.530;2023-07-29T14:55:18;26.30;99.90
16479;DHT22;8350;52.316;10.530;2023-07-29T14:57:46;26.40;1.00
16479;DHT22;8350;52.316;10.530;2023-07-29T15:00:13;26.20;1.00
16479;DHT22;8350;52.316;10.530;2023-07-29T15:02:40;25.90;1.00
16479;DHT22;8350;52.316;10.530;2023-07-29T15:05:08;25.90;99.90
16479;DHT22;8350;52.316;10.530;2023-07-29T15:07:36;25.90;99.90
16479;DHT22;8350;52.316;10.530;2023-07-29T15:10:04;26.00;1.00
16479;DHT22;8350;52.316;10.530;2023-07-29T15:12:31;26.10;1.00
16479;DHT22;8350;52.316;10.530;2023-07-29T15:14:58;26.20;32.60
16479;DHT22;8350;52.316;10.530;2023-07-29T15:17:25;26.20;17.30
16479;DHT22;8350;52.316;10.530;2023-07-29T15:19:52;26.10;1.00
16479;DHT22;8350;52.316;10.530;2023-07-29T15:22:19;26.00;1.00
16479;DHT22;8350;52.316;10.530;2023-07-29T15:24:47;26.00;71.70
16479;DHT22;8350;52.316;10.530;2023-07-29T15:27:14;26.00;99.90
16479;DHT22;8350;52.316;10.530;2023-07-29T15:29:41;26.00;1.00
16479;DHT22;8350;52.316;10.530;2023-07-29T15:32:08;25.90;99.90
16479;DHT22;8350;52.316;10.530;2023-07-29T15:34:35;25.60;99.90
16479;DHT22;8350;52.316;10.530;2023-07-29T15:37:02;25.40;99.90
16479;DHT22;8350;52.316;10.530;2023-07-29T15:39:29;25.30;1.00
16479;DHT22;8350;52.316;10.530;2023-07-29T15:41:58;25.10;1.00
16479;DHT22;8350;52.316;10.530;2023-07-29T15:44:25;25.00;99.90
16479;DHT22;8350;52.316;10.530;2023-07-29T15:46:52;24.90;1.00